This is the latest recevied weather packets stored in our database for station/object WD0REW. If no packets are shown the sender has not sent any weather packets the latest 1 day(s).
| Time | Temp. | Humidity | Pressure | Rain* | Wind** | Luminosity | Snow |
|---|---|---|---|---|---|---|---|
| 1778099571 | 16.11° C | 43% | 1016.9 hPa | 0 mm | - | 129 W/m² | - |
| 1778099268 | 15.56° C | 42% | 1016.9 hPa | 0 mm | - | 596 W/m² | - |
| 1778098358 | 16.11° C | 42% | 1017.1 hPa | 0 mm | - | 663 W/m² | - |
| 1778098055 | 16.11° C | 41% | 1017.3 hPa | 0 mm | - | 670 W/m² | - |
| 1778097752 | 16.11° C | 42% | 1017.2 hPa | 0 mm | - | 688 W/m² | - |
| 1778094719 | 16.67° C | 46% | 1017.9 hPa | 0 mm | - | 780 W/m² | - |
| 1778094417 | 16.67° C | 46% | 1018.1 hPa | 0 mm | - | 787 W/m² | - |
| 1778093204 | 15.56° C | 53% | 1018.5 hPa | 0 mm | - | 834 W/m² | - |
| 1778092901 | 15° C | 52% | 1018.6 hPa | 0 mm | - | 931 W/m² | - |
| 1778090476 | 14.44° C | 52% | 1018.6 hPa | 0 mm | - | 566 W/m² | - |
| 1778090172 | 13.89° C | 56% | 1018.6 hPa | 0 mm | - | 525 W/m² | - |
| 1778087144 | 14.44° C | 55% | 1018.4 hPa | 0 mm | - | 472 W/m² | - |
| 1778086841 | 14.44° C | 56% | 1018.2 hPa | 0 mm | - | 665 W/m² | - |
| 1778085630 | 13.89° C | 55% | 1018.3 hPa | 0 mm | - | 386 W/m² | - |
| 1778085326 | 14.44° C | 55% | 1018.4 hPa | 0 mm | - | 451 W/m² | - |
| 1778083810 | 13.33° C | 57% | 1018.1 hPa | 0 mm | - | 447 W/m² | - |
| 1778081188 | 11.67° C | 64% | 1018.2 hPa | 0 mm | - | 333 W/m² | - |
| 1778080886 | 11.11° C | 66% | 1018.2 hPa | 0 mm | - | 320 W/m² | - |
| 1778080585 | 11.11° C | 65% | 1018 hPa | 0 mm | - | 249 W/m² | - |
| 1778079978 | 10.56° C | 67% | 1018.3 hPa | 0 mm | - | 244 W/m² | - |
| 1778079675 | 10.56° C | 66% | 1018.2 hPa | 0 mm | - | 161 W/m² | - |
| 1778079372 | 10.56° C | 65% | 1018 hPa | 0 mm | - | 206 W/m² | - |
| 1778077556 | 9.44° C | 71% | 1017.8 hPa | 0 mm | - | 193 W/m² | - |
| 1778077254 | 8.89° C | 70% | 1017.9 hPa | 0 mm | - | 207 W/m² | - |
| 1778076347 | 8.89° C | 74% | 1017.8 hPa | 0 mm | - | 204 W/m² | - |
* Rain latest hour (hover to see other rain measurements)
** Current wind speed in m/s (hover to see current wind gust speed)